createdAt,value
2022-09-15T00:00:30.434Z,100680.66
2022-09-15T00:02:57.117Z,100677.34
2022-09-15T00:05:23.553Z,100673.00
2022-09-15T00:07:50.011Z,100671.31
2022-09-15T00:10:17.371Z,100675.91
2022-09-15T00:12:43.701Z,100677.84
2022-09-15T00:15:13.222Z,100671.81
2022-09-15T00:17:43.610Z,100671.03
2022-09-15T00:20:10.829Z,100659.66
2022-09-15T00:22:37.436Z,100666.81
2022-09-15T00:25:05.453Z,100673.91
2022-09-15T00:27:32.992Z,100672.22
2022-09-15T00:29:59.460Z,100674.00
2022-09-15T00:32:26.422Z,100668.75
2022-09-15T00:34:53.458Z,100667.81
2022-09-15T00:37:20.333Z,100670.53
2022-09-15T00:39:46.730Z,100672.28
2022-09-15T00:42:16.213Z,100663.44
2022-09-15T00:44:47.813Z,100671.44
2022-09-15T00:47:19.732Z,100674.16
2022-09-15T00:49:49.023Z,100671.59
2022-09-15T00:52:37.186Z,100672.53
2022-09-15T00:55:11.762Z,100677.00
2022-09-15T00:57:59.521Z,100677.25
2022-09-15T01:00:27.916Z,100679.97
2022-09-15T01:02:56.055Z,100680.84
2022-09-15T01:05:28.955Z,100679.91
2022-09-15T01:08:22.290Z,100681.63
2022-09-15T01:10:49.325Z,100682.53
2022-09-15T01:13:15.749Z,100684.28
2022-09-15T01:16:16.340Z,100680.75
2022-09-15T01:18:45.705Z,100684.22
2022-09-15T01:21:20.201Z,100679.81
2022-09-15T01:24:01.983Z,100683.34
2022-09-15T01:26:59.693Z,100681.50
2022-09-15T01:29:37.823Z,100679.72
2022-09-15T01:32:42.928Z,100685.88
2022-09-15T01:35:20.677Z,100684.97
2022-09-15T01:37:53.435Z,100684.97
2022-09-15T01:40:24.852Z,100689.41
2022-09-15T01:42:53.518Z,100687.53
2022-09-15T01:45:26.396Z,100684.88
2022-09-15T01:47:55.276Z,100684.94
2022-09-15T01:50:26.578Z,100684.03
2022-09-15T01:52:57.047Z,100676.13
2022-09-15T01:55:35.106Z,100684.03
2022-09-15T01:58:01.569Z,100680.56
2022-09-15T02:00:30.354Z,100687.72
2022-09-15T02:03:01.575Z,100684.22
2022-09-15T02:05:36.238Z,100692.16
2022-09-15T02:08:25.045Z,100685.91
2022-09-15T02:11:07.944Z,100690.34
2022-09-15T02:13:57.274Z,100687.69
2022-09-15T02:16:27.761Z,100689.47
2022-09-15T02:19:10.648Z,100682.38
2022-09-15T02:22:04.425Z,100692.94
2022-09-15T02:25:11.290Z,100688.47
2022-09-15T02:27:46.528Z,100685.75
2022-09-15T02:30:15.850Z,100680.41
2022-09-15T02:32:48.688Z,100683.94
2022-09-15T02:35:16.811Z,100686.56
2022-09-15T02:37:44.270Z,100686.56
2022-09-15T02:40:11.219Z,100686.56
2022-09-15T02:42:39.086Z,100687.44
2022-09-15T02:45:06.199Z,100690.09
2022-09-15T02:47:32.510Z,100688.28
2022-09-15T02:49:58.951Z,100697.06
2022-09-15T02:52:26.075Z,100696.97
2022-09-15T02:54:53.528Z,100689.81
2022-09-15T02:57:20.000Z,100692.47
2022-09-15T03:00:04.715Z,100685.34
2022-09-15T03:02:31.366Z,100695.94
2022-09-15T03:05:00.661Z,100695.06
2022-09-15T03:07:29.968Z,100692.41
2022-09-15T03:09:56.416Z,100699.47
2022-09-15T03:12:22.788Z,100695.00
2022-09-15T03:14:49.103Z,100691.66
2022-09-15T03:17:15.422Z,100701.41
2022-09-15T03:19:42.060Z,100695.31
2022-09-15T03:22:09.392Z,100700.56
2022-09-15T03:24:37.239Z,100706.75
2022-09-15T03:27:04.093Z,100704.06
2022-09-15T03:29:30.919Z,100699.63
2022-09-15T03:31:57.419Z,100713.69
2022-09-15T03:34:23.761Z,100712.03
2022-09-15T03:36:50.130Z,100713.78
2022-09-15T03:39:16.485Z,100706.66
2022-09-15T03:41:42.799Z,100714.69
2022-09-15T03:44:09.250Z,100712.03
2022-09-15T03:46:35.582Z,100706.66
2022-09-15T03:49:01.930Z,100703.13
2022-09-15T03:51:28.237Z,100690.81
2022-09-15T03:53:55.333Z,100703.94
2022-09-15T03:56:27.632Z,100709.25
2022-09-15T03:58:54.423Z,100713.66
2022-09-15T04:01:21.034Z,100713.66
2022-09-15T04:03:50.859Z,100713.63
2022-09-15T04:06:18.717Z,100718.03
2022-09-15T04:08:45.447Z,100712.63
2022-09-15T04:11:12.903Z,100711.75
2022-09-15T04:13:41.440Z,100709.97
2022-09-15T04:16:10.649Z,100713.53
2022-09-15T04:18:37.436Z,100713.56
2022-09-15T04:21:06.902Z,100718.03
2022-09-15T04:23:33.436Z,100719.81
2022-09-15T04:26:02.309Z,100718.94
2022-09-15T04:28:31.664Z,100722.44
2022-09-15T04:31:05.679Z,100730.41
2022-09-15T04:33:34.489Z,100716.22
2022-09-15T04:36:02.602Z,100718.00
2022-09-15T04:38:29.469Z,100713.53
2022-09-15T04:40:56.213Z,100714.47
2022-09-15T04:43:22.896Z,100712.63
2022-09-15T04:45:49.487Z,100709.09
2022-09-15T04:48:15.931Z,100717.13
2022-09-15T04:50:42.562Z,100710.81
2022-09-15T04:53:09.311Z,100713.53
2022-09-15T04:55:36.282Z,100717.91
2022-09-15T04:58:04.247Z,100711.75
2022-09-15T05:00:33.295Z,100715.28
2022-09-15T05:03:00.125Z,100714.50
2022-09-15T05:05:26.906Z,100714.50
2022-09-15T05:07:53.237Z,100712.69
2022-09-15T05:10:20.248Z,100714.47
2022-09-15T05:12:46.573Z,100707.38
2022-09-15T05:15:13.147Z,100710.09
2022-09-15T05:17:39.468Z,100716.34
2022-09-15T05:20:06.071Z,100716.41
2022-09-15T05:22:32.442Z,100721.75
2022-09-15T05:24:58.771Z,100727.97
2022-09-15T05:27:25.111Z,100735.97
2022-09-15T05:30:04.305Z,100725.34
2022-09-15T05:32:37.786Z,100735.09
2022-09-15T05:35:06.316Z,100729.78
2022-09-15T05:37:33.741Z,100727.19
2022-09-15T05:40:00.095Z,100721.91
2022-09-15T05:42:26.509Z,100718.38
2022-09-15T05:44:52.841Z,100721.03
2022-09-15T05:47:19.175Z,100714.00
2022-09-15T05:49:45.944Z,100727.13
2022-09-15T05:52:14.994Z,100727.13
2022-09-15T05:54:41.318Z,100728.91
2022-09-15T05:57:07.632Z,100717.63
2022-09-15T05:59:39.113Z,100729.00
2022-09-15T06:02:05.720Z,100724.53
2022-09-15T06:04:32.265Z,100730.72
2022-09-15T06:06:58.606Z,100721.81
2022-09-15T06:09:24.931Z,100722.66
2022-09-15T06:11:52.097Z,100732.34
2022-09-15T06:14:18.540Z,100727.88
2022-09-15T06:16:45.430Z,100734.00
2022-09-15T06:19:12.039Z,100733.16
2022-09-15T06:21:38.461Z,100741.94
2022-09-15T06:24:07.088Z,100734.72
2022-09-15T06:26:34.494Z,100738.75
2022-09-15T06:29:02.672Z,100743.88
2022-09-15T06:31:33.995Z,100749.13
2022-09-15T06:34:01.212Z,100761.34
2022-09-15T06:36:29.556Z,100763.63
2022-09-15T06:38:57.519Z,100765.91
2022-09-15T06:41:24.772Z,100760.47
2022-09-15T06:43:51.390Z,100771.94
2022-09-15T06:46:21.354Z,100769.38
2022-09-15T06:48:48.665Z,100779.34
2022-09-15T06:51:17.043Z,100777.88
2022-09-15T06:53:44.231Z,100784.34
2022-09-15T06:56:16.650Z,100785.41
2022-09-15T06:58:44.421Z,100782.97
2022-09-15T07:01:20.434Z,100789.16
2022-09-15T07:03:46.975Z,100791.81
2022-09-15T07:06:13.471Z,100790.97
2022-09-15T07:08:40.554Z,100793.75
2022-09-15T07:11:08.467Z,100800.00
2022-09-15T07:13:35.192Z,100794.81
2022-09-15T07:16:04.062Z,100807.28
2022-09-15T07:18:31.361Z,100810.03
2022-09-15T07:21:07.189Z,100814.38
2022-09-15T07:23:34.730Z,100808.22
2022-09-15T07:26:14.639Z,100813.31
2022-09-15T07:28:43.693Z,100815.81
2022-09-15T07:31:12.539Z,100812.28
2022-09-15T07:33:39.002Z,100806.88
2022-09-15T07:36:07.281Z,100809.44
2022-09-15T07:38:34.796Z,100816.41
2022-09-15T07:41:13.006Z,100817.16
2022-09-15T07:43:39.955Z,100815.31
2022-09-15T07:46:07.054Z,100818.03
2022-09-15T07:48:34.707Z,100821.53
2022-09-15T07:51:04.043Z,100824.06
2022-09-15T07:53:30.541Z,100826.63
2022-09-15T07:55:57.481Z,100824.66
2022-09-15T07:58:24.934Z,100827.19
2022-09-15T08:00:51.679Z,100832.38
2022-09-15T08:03:18.125Z,100834.91
2022-09-15T08:05:45.826Z,100838.28
2022-09-15T08:08:12.731Z,100844.25
2022-09-15T08:10:41.010Z,100840.63
2022-09-15T08:13:07.419Z,100844.09
2022-09-15T08:15:36.864Z,100848.50
2022-09-15T08:18:03.697Z,100846.56
2022-09-15T08:20:31.402Z,100847.38
2022-09-15T08:22:57.873Z,100852.69
2022-09-15T08:25:24.440Z,100856.31
2022-09-15T08:27:52.899Z,100857.16
2022-09-15T08:30:19.638Z,100866.84
2022-09-15T08:32:46.546Z,100851.81
2022-09-15T08:35:12.908Z,100860.66
2022-09-15T08:37:39.819Z,100865.97
2022-09-15T08:40:06.764Z,100870.34
2022-09-15T08:42:33.300Z,100874.75
2022-09-15T08:45:08.088Z,100873.94
2022-09-15T08:47:40.667Z,100877.56
2022-09-15T08:50:30.969Z,100878.41
2022-09-15T08:53:11.873Z,100875.09
2022-09-15T08:55:48.796Z,100888.25
2022-09-15T08:58:26.394Z,100889.28
2022-09-15T09:01:06.028Z,100888.47
2022-09-15T09:03:41.060Z,100878.81
2022-09-15T09:06:27.815Z,100886.78
2022-09-15T09:09:27.086Z,100883.28
2022-09-15T09:12:12.528Z,100877.13
2022-09-15T09:14:58.189Z,100884.88
2022-09-15T09:17:42.540Z,100881.16
2022-09-15T09:20:29.216Z,100878.28
2022-09-15T09:22:57.987Z,100886.84
2022-09-15T09:25:28.502Z,100883.94
2022-09-15T09:27:58.176Z,100896.97
2022-09-15T09:30:27.670Z,100895.84
2022-09-15T09:33:24.838Z,100898.31
2022-09-15T09:35:52.345Z,100894.50
2022-09-15T09:38:46.293Z,100897.72
2022-09-15T09:41:16.794Z,100894.63
2022-09-15T09:43:47.326Z,100887.00
2022-09-15T09:46:16.289Z,100889.44
2022-09-15T09:48:56.361Z,100882.22
2022-09-15T09:51:34.344Z,100889.44
2022-09-15T09:54:20.614Z,100895.94
2022-09-15T09:56:49.304Z,100892.78
2022-09-15T09:59:44.263Z,100896.78
2022-09-15T10:02:13.542Z,100894.41
2022-09-15T10:04:45.277Z,100892.69
2022-09-15T10:07:12.977Z,100887.34
2022-09-15T10:09:40.052Z,100881.94
2022-09-15T10:12:07.364Z,100891.69
2022-09-15T10:14:40.231Z,100887.91
2022-09-15T10:17:15.679Z,100885.69
2022-09-15T10:19:48.801Z,100882.69
2022-09-15T10:22:25.844Z,100877.94
2022-09-15T10:24:53.128Z,100875.13
2022-09-15T10:27:32.722Z,100873.00
2022-09-15T10:30:16.513Z,100876.38
2022-09-15T10:32:43.174Z,100878.66
2022-09-15T10:35:13.854Z,100871.34
2022-09-15T10:38:08.818Z,100866.41
2022-09-15T10:41:12.414Z,100870.47
2022-09-15T10:44:02.969Z,100862.78
2022-09-15T10:46:58.297Z,100856.63
2022-09-15T10:49:46.339Z,100863.78
2022-09-15T10:52:31.448Z,100861.50
2022-09-15T10:55:04.053Z,100868.69
2022-09-15T10:57:51.955Z,100857.16
2022-09-15T11:00:24.033Z,100862.97
2022-09-15T11:03:21.546Z,100853.91
2022-09-15T11:06:13.927Z,100864.81
2022-09-15T11:08:49.909Z,100867.09
2022-09-15T11:11:32.056Z,100883.41
2022-09-15T11:14:16.395Z,100874.66
2022-09-15T11:17:13.651Z,100872.09
2022-09-15T11:19:58.804Z,100875.44
2022-09-15T11:22:29.515Z,100862.28
2022-09-15T11:25:03.536Z,100861.25
2022-09-15T11:27:42.381Z,100856.09
2022-09-15T11:30:20.409Z,100851.31
2022-09-15T11:33:11.118Z,100852.47
2022-09-15T11:35:50.048Z,100855.66
2022-09-15T11:38:38.408Z,100860.81
2022-09-15T11:41:11.459Z,100862.59
2022-09-15T11:43:47.433Z,100854.22
2022-09-15T11:46:21.188Z,100859.50
2022-09-15T11:49:00.717Z,100852.63
2022-09-15T11:51:31.839Z,100850.75
2022-09-15T11:54:05.476Z,100856.06
2022-09-15T11:56:42.774Z,100857.16
2022-09-15T11:59:32.575Z,100858.25
2022-09-15T12:02:44.011Z,100868.97
2022-09-15T12:05:17.412Z,100862.69
2022-09-15T12:07:54.643Z,100859.81
2022-09-15T12:10:28.293Z,100860.50
2022-09-15T12:12:55.549Z,100871.63
2022-09-15T12:15:27.245Z,100869.53
2022-09-15T12:18:34.850Z,100873.06
2022-09-15T12:21:16.309Z,100864.72
2022-09-15T12:23:54.863Z,100870.97
2022-09-15T12:26:25.115Z,100876.59
2022-09-15T12:28:57.672Z,100890.66
2022-09-15T12:31:39.238Z,100897.50
2022-09-15T12:34:24.293Z,100900.06
2022-09-15T12:36:53.819Z,100909.97
2022-09-15T12:39:29.010Z,100915.94
2022-09-15T12:42:04.380Z,100905.97
2022-09-15T12:44:42.897Z,100906.47
2022-09-15T12:47:33.994Z,100912.94
2022-09-15T12:50:15.561Z,100913.00
2022-09-15T12:52:49.785Z,100908.63
2022-09-15T12:55:32.831Z,100908.66
2022-09-15T12:58:01.633Z,100911.19
2022-09-15T13:00:28.815Z,100901.97
2022-09-15T13:02:55.896Z,100904.56
2022-09-15T13:05:40.930Z,100904.41
2022-09-15T13:08:34.652Z,100893.47
2022-09-15T13:11:04.564Z,100900.50
2022-09-15T13:13:39.378Z,100902.78
2022-09-15T13:16:14.804Z,100904.66
2022-09-15T13:18:43.278Z,100903.84
2022-09-15T13:21:15.565Z,100900.91
2022-09-15T13:23:47.916Z,100897.75
2022-09-15T13:26:22.536Z,100899.91
2022-09-15T13:28:52.726Z,100896.25
2022-09-15T13:31:43.390Z,100901.50
2022-09-15T13:41:16.400Z,100903.19
2022-09-15T13:44:04.334Z,100902.63
2022-09-15T13:46:53.190Z,100912.03
2022-09-15T13:49:35.617Z,100913.78
2022-09-15T13:52:23.276Z,100919.47
2022-09-15T13:55:10.225Z,100911.78
2022-09-15T14:00:48.180Z,100902.44
2022-09-15T14:03:20.342Z,100912.03
2022-09-15T14:05:46.814Z,100910.81
2022-09-15T14:08:17.645Z,100906.03
2022-09-15T14:11:11.062Z,100908.34
2022-09-15T14:13:43.421Z,100910.59
2022-09-15T14:16:30.117Z,100915.44
2022-09-15T14:19:02.094Z,100909.66
2022-09-15T14:21:33.670Z,100905.78
2022-09-15T14:24:05.904Z,100903.53
2022-09-15T14:26:35.366Z,100905.81
2022-09-15T14:29:05.686Z,100913.09
2022-09-15T14:31:42.911Z,100911.22
2022-09-15T14:34:19.850Z,100909.38
2022-09-15T14:36:54.010Z,100907.75
2022-09-15T14:39:30.361Z,100896.16
2022-09-15T14:41:56.883Z,100905.00
2022-09-15T14:47:25.836Z,100904.13
2022-09-15T14:50:08.037Z,100904.13
2022-09-15T14:52:39.356Z,100905.00
2022-09-15T14:55:12.482Z,100904.38
2022-09-15T14:57:41.444Z,100912.50
2022-09-15T15:00:14.836Z,100910.69
2022-09-15T15:03:18.216Z,100915.22
2022-09-15T15:05:54.663Z,100913.53
2022-09-15T15:08:41.853Z,100904.56
2022-09-15T15:11:10.863Z,100908.47
2022-09-15T15:13:42.486Z,100909.75
2022-09-15T15:16:20.217Z,100914.44
2022-09-15T15:18:46.679Z,100911.06
2022-09-15T15:21:50.759Z,100926.16
2022-09-15T15:24:23.093Z,100939.22
2022-09-15T15:26:50.975Z,100945.34
2022-09-15T15:29:40.155Z,100940.97
2022-09-15T15:32:12.441Z,100943.66
2022-09-15T15:34:39.003Z,100940.44
2022-09-15T15:37:16.317Z,100943.28
2022-09-15T15:39:46.187Z,100944.34
2022-09-15T15:42:15.890Z,100948.81
2022-09-15T15:45:05.195Z,100957.78
2022-09-15T15:47:35.847Z,100959.72
2022-09-15T15:50:14.041Z,100959.06
2022-09-15T15:52:43.684Z,100958.56
2022-09-15T15:55:14.372Z,100958.09
2022-09-15T15:57:40.805Z,100962.88
2022-09-15T16:00:21.287Z,100958.59
2022-09-15T16:02:48.576Z,100953.22
2022-09-15T16:05:20.464Z,100962.03
2022-09-15T16:07:50.205Z,100960.22
2022-09-15T16:10:19.081Z,100959.28
2022-09-15T16:12:45.516Z,100964.47
2022-09-15T16:15:17.821Z,100957.31
2022-09-15T16:17:46.845Z,100957.25
2022-09-15T16:20:15.813Z,100967.91
2022-09-15T16:22:43.681Z,100968.84
2022-09-15T16:25:18.206Z,100975.09
2022-09-15T16:27:44.615Z,100976.22
2022-09-15T16:30:12.137Z,100973.56
2022-09-15T16:32:40.078Z,100978.00
2022-09-15T16:35:36.546Z,100971.81
2022-09-15T16:38:03.443Z,100965.66
2022-09-15T16:40:29.846Z,100977.25
2022-09-15T16:42:56.359Z,100971.19
2022-09-15T16:45:36.678Z,100970.47
2022-09-15T16:48:06.497Z,100958.19
2022-09-15T16:50:33.113Z,100962.59
2022-09-15T16:52:59.533Z,100968.06
2022-09-15T16:55:31.874Z,100959.16
2022-09-15T16:57:59.739Z,100961.84
2022-09-15T17:00:27.788Z,100959.94
2022-09-15T17:02:54.213Z,100963.56
2022-09-15T17:05:28.090Z,100963.59
2022-09-15T17:07:54.777Z,100953.84
2022-09-15T17:10:21.319Z,100950.47
2022-09-15T17:12:50.913Z,100962.91
2022-09-15T17:15:36.187Z,100951.50
2022-09-15T17:18:02.729Z,100957.75
2022-09-15T17:20:29.339Z,100957.81
2022-09-15T17:22:55.679Z,100958.81
2022-09-15T17:25:26.968Z,100956.03
2022-09-15T17:27:54.125Z,100965.81
2022-09-15T17:30:22.219Z,100960.47
2022-09-15T17:32:49.494Z,100966.59
2022-09-15T17:35:24.634Z,100967.47
2022-09-15T17:37:52.088Z,100967.44
2022-09-15T17:40:20.891Z,100975.38
2022-09-15T17:42:49.082Z,100972.81
2022-09-15T17:45:21.986Z,100975.56
2022-09-15T17:47:49.038Z,100978.25
2022-09-15T17:50:20.703Z,100974.69
2022-09-15T17:52:48.329Z,100982.59
2022-09-15T17:55:41.653Z,100985.25
2022-09-15T17:58:08.494Z,100991.47
2022-09-15T18:00:40.746Z,100995.91
2022-09-15T18:03:29.891Z,100996.84
2022-09-15T18:05:58.478Z,100997.06
2022-09-15T18:08:25.808Z,101001.75
2022-09-15T18:10:52.421Z,101007.47
2022-09-15T18:13:21.482Z,101007.63
2022-09-15T18:15:49.097Z,101013.19
2022-09-15T18:18:21.252Z,101015.88
2022-09-15T18:20:49.897Z,101018.63
2022-09-15T18:23:23.843Z,101022.16
2022-09-15T18:25:51.264Z,101032.00
2022-09-15T18:28:18.692Z,101031.25
2022-09-15T18:30:47.672Z,101018.19
2022-09-15T18:33:32.236Z,101020.16
2022-09-15T18:35:59.122Z,101015.97
2022-09-15T18:38:26.328Z,101012.47
2022-09-15T18:40:56.021Z,101009.00
2022-09-15T18:43:28.065Z,101009.00
2022-09-15T18:45:59.401Z,101006.28
2022-09-15T18:48:26.359Z,101008.03
2022-09-15T18:50:53.562Z,101016.84
2022-09-15T18:53:19.938Z,101014.16
2022-09-15T18:55:47.318Z,101007.09
2022-09-15T18:58:13.828Z,100997.41
2022-09-15T19:00:40.657Z,101003.63
2022-09-15T19:03:09.452Z,101011.56
2022-09-15T19:05:36.237Z,101007.13
2022-09-15T19:08:03.499Z,101005.38
2022-09-15T19:10:30.263Z,101006.28
2022-09-15T19:12:56.723Z,101009.81
2022-09-15T19:15:24.314Z,101024.84
2022-09-15T19:17:51.116Z,101018.69
2022-09-15T19:20:21.453Z,101016.03
2022-09-15T19:22:51.687Z,101033.69
2022-09-15T19:25:18.598Z,101020.47
2022-09-15T19:27:45.023Z,101024.00
2022-09-15T19:30:12.408Z,101030.22
2022-09-15T19:32:42.643Z,101032.97
2022-09-15T19:35:11.227Z,101048.88
2022-09-15T19:37:39.744Z,101052.47
2022-09-15T19:40:12.610Z,101043.66
2022-09-15T19:42:41.716Z,101044.56
2022-09-15T19:45:11.156Z,101026.09
2022-09-15T19:47:38.449Z,101056.13
2022-09-15T19:50:06.812Z,101042.16
2022-09-15T19:52:33.612Z,101044.84
2022-09-15T19:55:00.535Z,101039.59
2022-09-15T19:57:29.800Z,101034.28
2022-09-15T19:59:56.285Z,101027.25
2022-09-15T20:02:22.647Z,101028.97
2022-09-15T20:04:50.293Z,101028.13
2022-09-15T20:07:16.653Z,101029.91
2022-09-15T20:09:42.985Z,101029.91
2022-09-15T20:12:09.488Z,101031.69
2022-09-15T20:14:35.897Z,101037.91
2022-09-15T20:17:02.558Z,101037.94
2022-09-15T20:19:29.844Z,101037.16
2022-09-15T20:21:56.230Z,101040.72
2022-09-15T20:24:24.284Z,101045.19
2022-09-15T20:26:51.318Z,101051.47
2022-09-15T20:29:23.466Z,101044.47
2022-09-15T20:31:49.879Z,101042.72
2022-09-15T20:34:18.522Z,101034.81
2022-09-15T20:36:45.457Z,101035.72
2022-09-15T20:39:14.444Z,101041.06
2022-09-15T20:41:44.931Z,101039.38
2022-09-15T20:44:15.416Z,101037.59
2022-09-15T20:46:42.170Z,101034.06
2022-09-15T20:49:09.272Z,101037.63
2022-09-15T20:51:35.939Z,101040.31
2022-09-15T20:54:04.191Z,101047.34
2022-09-15T20:56:34.761Z,101044.72
2022-09-15T20:59:01.912Z,101045.59
2022-09-15T21:01:38.742Z,101042.09
2022-09-15T21:04:06.588Z,101050.03
2022-09-15T21:06:34.061Z,101050.91
2022-09-15T21:09:00.956Z,101054.41
2022-09-15T21:11:28.532Z,101057.94
2022-09-15T21:13:56.344Z,101057.91
2022-09-15T21:16:28.623Z,101066.72
2022-09-15T21:18:57.399Z,101060.59
2022-09-15T21:21:26.527Z,101050.03
2022-09-15T21:23:55.783Z,101060.63
2022-09-15T21:26:30.794Z,101040.38
2022-09-15T21:28:57.757Z,101057.09
2022-09-15T21:31:29.881Z,101046.53
2022-09-15T21:34:07.711Z,101046.56
2022-09-15T21:36:34.258Z,101046.56
2022-09-15T21:39:02.952Z,101056.28
2022-09-15T21:41:32.546Z,101048.34
2022-09-15T21:44:00.548Z,101051.03
2022-09-15T21:46:29.691Z,101045.72
2022-09-15T21:49:07.016Z,101047.53
2022-09-15T21:51:33.896Z,101041.38
2022-09-15T21:54:00.770Z,101048.44
2022-09-15T21:56:29.035Z,101051.09
2022-09-15T21:58:57.978Z,101053.72
2022-09-15T22:01:31.774Z,101055.50
2022-09-15T22:04:06.387Z,101055.56
2022-09-15T22:06:35.410Z,101057.31
2022-09-15T22:09:05.614Z,101054.66
2022-09-15T22:11:32.673Z,101049.38
2022-09-15T22:14:01.772Z,101044.09
2022-09-15T22:16:28.874Z,101036.97
2022-09-15T22:18:55.462Z,101045.81
2022-09-15T22:21:25.923Z,101036.09
2022-09-15T22:23:57.961Z,101031.69
2022-09-15T22:26:28.229Z,101036.09
2022-09-15T22:28:55.481Z,101029.06
2022-09-15T22:31:23.496Z,101022.00
2022-09-15T22:33:50.471Z,101022.06
2022-09-15T22:36:35.011Z,101031.84
2022-09-15T22:39:05.680Z,101021.28
2022-09-15T22:41:39.221Z,101027.47
2022-09-15T22:44:12.782Z,101034.56
2022-09-15T22:46:45.567Z,101046.03
2022-09-15T22:49:12.476Z,101038.09
2022-09-15T22:51:38.804Z,101035.47
2022-09-15T22:54:05.287Z,101034.56
2022-09-15T22:56:31.696Z,101034.50
2022-09-15T22:58:58.420Z,101039.81
2022-09-15T23:01:28.301Z,101047.72
2022-09-15T23:03:57.056Z,101046.78
2022-09-15T23:06:24.777Z,101045.88
2022-09-15T23:08:53.025Z,101041.50
2022-09-15T23:11:19.930Z,101050.31
2022-09-15T23:13:46.539Z,101040.59
2022-09-15T23:16:12.933Z,101039.75
2022-09-15T23:18:39.389Z,101037.09
2022-09-15T23:21:10.651Z,101042.38
2022-09-15T23:23:41.801Z,101037.94
2022-09-15T23:26:10.515Z,101045.00
2022-09-15T23:28:39.117Z,101041.47
2022-09-15T23:31:07.090Z,101048.53
2022-09-15T23:33:33.639Z,101038.78
2022-09-15T23:36:05.841Z,101042.31
2022-09-15T23:38:35.797Z,101044.09
2022-09-15T23:41:05.861Z,101045.81
2022-09-15T23:43:33.209Z,101040.53
2022-09-15T23:46:00.349Z,101044.94
2022-09-15T23:48:27.021Z,101034.41
2022-09-15T23:50:56.144Z,101040.59
2022-09-15T23:53:22.562Z,101037.06
2022-09-15T23:55:48.939Z,101038.84
2022-09-15T23:58:15.847Z,101024.78
